Time;durP1;ratioP1;P1;durP2;ratioP2;P2;SDS_P1;SDS_P2;PMS_P1;PMS_P2;Temp;Humidity;BMP_temperature;BMP_pressure;BME280_temperature;BME280_humidity;BME280_pressure;Samples;Min_cycle;Max_cycle;Signal;HPM_P1;HPM_P2
2024/04/02 00:01:47;;;;;;;0.20;0.20;;;10.10;99.90;;;;;;4990252;28;20068;-80
2024/04/02 00:04:13;;;;;;;0.57;0.20;;;10.00;28.40;;;;;;4989823;28;20053;-79
2024/04/02 00:06:39;;;;;;;0.17;0.17;;;10.00;63.70;;;;;;4973871;28;20053;-79
2024/04/02 00:09:05;;;;;;;0.38;0.30;;;10.00;99.90;;;;;;4989467;28;20058;-79
2024/04/02 00:11:31;;;;;;;0.73;0.30;;;10.00;99.90;;;;;;4989515;28;20123;-80
2024/04/02 00:13:58;;;;;;;0.85;0.25;;;10.00;99.90;;;;;;4973210;28;20054;-79
2024/04/02 00:16:24;;;;;;;0.80;0.20;;;10.00;99.90;;;;;;4989514;28;20057;-79
2024/04/02 00:18:50;;;;;;;0.65;0.30;;;10.00;99.90;;;;;;4973543;28;20053;-80
2024/04/02 00:21:16;;;;;;;0.40;0.30;;;10.00;99.90;;;;;;5006036;28;20057;-80
2024/04/02 00:23:42;;;;;;;1.42;0.50;;;10.00;99.90;;;;;;5004895;28;20613;-80
2024/04/02 00:26:08;;;;;;;1.58;0.50;;;10.00;99.90;;;;;;4990109;28;20083;-80
2024/04/02 00:28:34;;;;;;;0.77;0.30;;;10.00;99.90;;;;;;5005580;28;20054;-80
2024/04/02 00:31:04;;;;;;;0.47;0.20;;;9.90;99.90;;;;;;4989678;28;20053;-80
2024/04/02 00:33:30;;;;;;;0.75;0.40;;;9.90;1.00;;;;;;4989863;28;20072;-80
2024/04/02 00:36:03;;;;;;;2.63;0.93;;;9.90;1.00;;;;;;4989378;28;20065;-79
2024/04/02 00:38:30;;;;;;;1.10;0.30;;;9.90;1.00;;;;;;4988776;28;20052;-80
2024/04/02 00:40:56;;;;;;;0.52;0.30;;;9.80;99.90;;;;;;4972770;28;20508;-80
2024/04/02 00:43:23;;;;;;;0.68;0.28;;;9.80;1.00;;;;;;4989589;28;20416;-79
2024/04/02 00:45:49;;;;;;;0.50;0.40;;;9.80;1.00;;;;;;5005599;28;20524;-79
2024/04/02 00:48:15;;;;;;;1.42;0.40;;;9.80;1.00;;;;;;5005288;28;20065;-80
2024/04/02 00:50:41;;;;;;;0.55;0.20;;;9.80;1.00;;;;;;4972739;28;20398;-80
2024/04/02 00:53:07;;;;;;;0.30;0.28;;;9.70;1.00;;;;;;4992212;28;20064;-81
2024/04/02 00:55:37;;;;;;;0.45;0.30;;;9.70;1.00;;;;;;4975864;28;20085;-80
2024/04/02 00:58:08;;;;;;;0.70;0.30;;;9.70;1.00;;;;;;5009709;28;20224;-80
2024/04/02 01:00:36;;;;;;;1.15;0.40;;;9.70;1.00;;;;;;5010008;28;20050;-80
2024/04/02 01:03:05;;;;;;;0.80;0.30;;;9.70;1.00;;;;;;4990196;28;20476;-81
2024/04/02 01:05:35;;;;;;;0.25;0.25;;;9.70;1.00;;;;;;4973833;28;20436;-80
2024/04/02 01:08:01;;;;;;;1.25;0.30;;;9.70;73.40;;;;;;5022462;28;20069;-81
2024/04/02 01:10:28;;;;;;;0.93;0.32;;;9.70;17.10;;;;;;4992347;28;20800;-80
2024/04/02 01:12:54;;;;;;;0.82;0.30;;;9.70;40.00;;;;;;5008709;28;20096;-80
2024/04/02 01:15:20;;;;;;;0.30;0.20;;;9.70;78.90;;;;;;4973564;28;20054;-80
2024/04/02 01:17:48;;;;;;;0.60;0.38;;;9.70;54.10;;;;;;5006017;28;20140;-80
2024/04/02 01:20:14;;;;;;;0.52;0.40;;;9.80;94.70;;;;;;4989779;28;20069;-80
2024/04/02 01:22:40;;;;;;;0.65;0.40;;;9.80;87.00;;;;;;4974605;28;20128;-80
2024/04/02 01:25:06;;;;;;;1.63;0.35;;;9.80;96.30;;;;;;4975654;28;20054;-80
2024/04/02 01:27:33;;;;;;;1.08;0.50;;;9.90;99.90;;;;;;4969626;28;20061;-81
2024/04/02 01:29:59;;;;;;;0.50;0.40;;;9.90;99.90;;;;;;4991921;28;20053;-80
2024/04/02 01:32:25;;;;;;;1.48;0.40;;;10.00;99.90;;;;;;4988089;28;20056;-80
2024/04/02 01:34:51;;;;;;;0.63;0.20;;;10.00;99.90;;;;;;5012395;28;20064;-80
2024/04/02 01:37:17;;;;;;;0.93;0.30;;;10.00;99.90;;;;;;4993089;28;20140;-81
2024/04/02 01:39:43;;;;;;;0.20;0.20;;;10.00;99.90;;;;;;5011202;28;20053;-80
2024/04/02 01:42:09;;;;;;;1.55;0.35;;;10.00;1.00;;;;;;4978952;28;20053;-81
2024/04/02 01:44:35;;;;;;;0.80;0.40;;;10.00;1.00;;;;;;4995472;28;20050;-80
2024/04/02 01:47:00;;;;;;;0.30;0.25;;;10.00;99.90;;;;;;4976959;28;20060;-81
2024/04/02 01:49:26;;;;;;;0.57;0.30;;;9.90;1.00;;;;;;4994753;28;20053;-80
2024/04/02 01:51:52;;;;;;;0.25;0.25;;;9.90;1.00;;;;;;4994455;28;20061;-80
2024/04/02 01:54:18;;;;;;;1.33;0.60;;;9.80;99.90;;;;;;4994175;28;20053;-79
2024/04/02 01:56:44;;;;;;;0.32;0.30;;;9.80;99.90;;;;;;4993328;28;20092;-79
2024/04/02 01:59:10;;;;;;;0.65;0.28;;;9.80;99.90;;;;;;4993689;28;20052;-79
2024/04/02 02:01:36;;;;;;;0.30;0.30;;;9.70;20.20;;;;;;4994034;28;20057;-79
2024/04/02 02:04:02;;;;;;;0.85;0.40;;;9.70;99.90;;;;;;4993144;28;20710;-80
2024/04/02 02:06:28;;;;;;;1.20;0.40;;;9.70;1.00;;;;;;5009720;28;20066;-80
2024/04/02 02:08:53;;;;;;;0.43;0.20;;;9.70;99.90;;;;;;4993272;28;20053;-80
2024/04/02 02:11:19;;;;;;;0.20;0.20;;;9.70;99.90;;;;;;4993223;28;20057;-80
2024/04/02 02:13:45;;;;;;;0.20;0.20;;;9.70;99.90;;;;;;4993846;28;20054;-79
2024/04/02 02:16:11;;;;;;;0.60;0.30;;;9.70;15.00;;;;;;4977643;28;20067;-79
2024/04/02 02:18:37;;;;;;;0.35;0.20;;;9.70;1.00;;;;;;5010670;28;20053;-80
2024/04/02 02:21:03;;;;;;;0.60;0.30;;;9.70;1.00;;;;;;4977650;28;20119;-80
2024/04/02 02:23:29;;;;;;;0.10;0.10;;;9.60;1.00;;;;;;4993281;28;20060;-80
2024/04/02 02:25:56;;;;;;;1.10;0.30;;;9.60;1.00;;;;;;4993604;28;20057;-79
2024/04/02 02:28:22;;;;;;;0.68;0.20;;;9.60;61.50;;;;;;4976958;28;20508;-80
2024/04/02 02:30:47;;;;;;;0.47;0.43;;;9.60;98.20;;;;;;5009889;28;20056;-79
2024/04/02 02:33:13;;;;;;;1.48;0.40;;;9.60;99.90;;;;;;4977597;28;20049;-80
2024/04/02 02:35:39;;;;;;;0.20;0.20;;;9.50;1.00;;;;;;5009767;28;20061;-80
2024/04/02 02:38:05;;;;;;;0.20;0.10;;;9.50;23.00;;;;;;5009180;28;20167;-79
2024/04/02 02:40:31;;;;;;;0.30;0.30;;;9.60;1.00;;;;;;5025698;28;20104;-79
2024/04/02 02:42:58;;;;;;;0.60;0.40;;;9.50;21.00;;;;;;4993225;28;20049;-80
2024/04/02 02:45:24;;;;;;;0.77;0.30;;;9.50;1.00;;;;;;5009296;28;20072;-80
2024/04/02 02:47:50;;;;;;;0.55;0.22;;;9.50;99.90;;;;;;4993467;28;20064;-79
2024/04/02 02:50:16;;;;;;;0.95;0.30;;;9.50;99.90;;;;;;4992625;28;20404;-79
2024/04/02 02:52:43;;;;;;;0.45;0.38;;;9.60;99.90;;;;;;5009320;28;20085;-79
2024/04/02 02:55:09;;;;;;;1.45;0.40;;;9.60;99.90;;;;;;5008578;28;20072;-78
2024/04/02 02:57:34;;;;;;;0.80;0.40;;;9.60;99.90;;;;;;5009429;28;20053;-79
2024/04/02 03:00:00;;;;;;;0.85;0.30;;;9.60;99.90;;;;;;4993044;28;20061;-79
2024/04/02 03:02:26;;;;;;;0.88;0.30;;;9.60;99.90;;;;;;4993322;28;20126;-79
2024/04/02 03:04:52;;;;;;;0.40;0.30;;;9.60;99.90;;;;;;4992791;28;20073;-79
2024/04/02 03:07:18;;;;;;;0.55;0.20;;;9.70;1.00;;;;;;4992607;28;20050;-79
2024/04/02 03:09:44;;;;;;;0.82;0.30;;;9.60;1.00;;;;;;4992316;28;20053;-79
2024/04/02 03:12:10;;;;;;;0.40;0.30;;;9.60;1.00;;;;;;4992265;28;20135;-80
2024/04/02 03:14:35;;;;;;;0.73;0.45;;;9.60;12.80;;;;;;4992465;28;20057;-79
2024/04/02 03:17:01;;;;;;;0.40;0.25;;;9.60;74.10;;;;;;4992617;28;20053;-79
2024/04/02 03:19:28;;;;;;;1.85;0.50;;;9.60;2.50;;;;;;5008374;28;20099;-79
2024/04/02 03:21:53;;;;;;;0.30;0.30;;;9.60;99.90;;;;;;5008471;28;20107;-79
2024/04/02 03:24:19;;;;;;;0.85;0.30;;;9.60;99.90;;;;;;4991786;28;20436;-79
2024/04/02 03:26:48;;;;;;;0.52;0.30;;;9.60;99.90;;;;;;4992084;28;20126;-79
2024/04/02 03:29:14;;;;;;;0.55;0.30;;;9.50;99.90;;;;;;4992844;28;20159;-80
2024/04/02 03:31:40;;;;;;;0.30;0.20;;;9.50;99.90;;;;;;4992367;28;20187;-79
2024/04/02 03:34:06;;;;;;;1.15;0.73;;;9.50;99.90;;;;;;5008992;28;20053;-80
2024/04/02 03:36:32;;;;;;;1.40;0.45;;;9.50;99.90;;;;;;4991828;28;20511;-80
2024/04/02 03:38:58;;;;;;;0.43;0.30;;;9.40;99.90;;;;;;4992011;28;20084;-79
2024/04/02 03:41:25;;;;;;;1.27;0.30;;;9.40;99.90;;;;;;5007771;28;20115;-80
2024/04/02 03:43:51;;;;;;;0.22;0.20;;;9.40;99.90;;;;;;4992699;28;20511;-79
2024/04/02 03:46:17;;;;;;;0.10;0.10;;;9.30;99.90;;;;;;4976467;28;20139;-79
2024/04/02 03:48:43;;;;;;;0.90;0.32;;;9.20;99.90;;;;;;4991997;28;20096;-79
2024/04/02 03:51:09;;;;;;;0.15;0.15;;;9.20;13.40;;;;;;5008255;28;20414;-79
2024/04/02 03:53:35;;;;;;;0.25;0.22;;;9.10;1.00;;;;;;4991678;28;20119;-80
2024/04/02 03:56:02;;;;;;;0.57;0.30;;;9.00;99.90;;;;;;5007826;28;20491;-80
2024/04/02 03:58:29;;;;;;;0.20;0.20;;;9.00;99.90;;;;;;4991938;28;20056;-80
2024/04/02 04:00:56;;;;;;;0.10;0.10;;;8.90;1.00;;;;;;5009036;28;20394;-80
2024/04/02 04:03:25;;;;;;;0.17;0.10;;;8.90;99.90;;;;;;4992560;28;20049;-80
2024/04/02 04:05:58;;;;;;;0.20;0.20;;;8.90;99.90;;;;;;4992534;28;20358;-79
2024/04/02 04:08:27;;;;;;;0.10;0.10;;;8.90;99.90;;;;;;5008142;28;20062;-80
2024/04/02 04:10:53;;;;;;;0.10;0.10;;;8.90;99.90;;;;;;5008355;28;20057;-79
2024/04/02 04:13:20;;;;;;;0.30;0.10;;;8.90;99.90;;;;;;4975767;28;20559;-79
2024/04/02 04:15:59;;;;;;;0.13;0.10;;;8.90;99.90;;;;;;5005171;28;20524;-79
2024/04/02 04:18:25;;;;;;;0.43;0.30;;;8.90;20.60;;;;;;5004916;28;20053;-79
2024/04/02 04:20:52;;;;;;;0.73;0.20;;;8.90;70.50;;;;;;5004950;28;20066;-79
2024/04/02 04:23:19;;;;;;;0.22;0.20;;;9.00;99.90;;;;;;5006345;28;20061;-88
2024/04/02 04:26:02;;;;;;;0.43;0.25;;;9.00;99.90;;;;;;4994180;28;20116;-88
2024/04/02 04:28:47;;;;;;;0.67;0.27;;;9.10;99.90;;;;;;4998058;28;20053;-87
2024/04/02 04:31:22;;;;;;;0.25;0.20;;;9.10;99.90;;;;;;4998009;28;20311;-87
2024/04/02 04:33:48;;;;;;;0.77;0.40;;;9.20;99.90;;;;;;4998771;28;20068;-88
2024/04/02 04:37:08;;;;;;;0.77;0.30;;;9.20;99.90;;;;;;4979912;28;20057;-88
2024/04/02 04:39:35;;;;;;;2.53;0.55;;;9.30;1.00;;;;;;4997683;28;20054;-86
2024/04/02 04:42:20;;;;;;;0.75;0.28;;;9.30;1.00;;;;;;4981518;28;20104;-89
2024/04/02 04:44:45;;;;;;;1.48;0.50;;;9.30;99.90;;;;;;4997565;28;20424;-88
2024/04/02 04:47:11;;;;;;;0.82;0.28;;;9.40;99.90;;;;;;4997425;28;20069;-87
2024/04/02 04:49:37;;;;;;;0.28;0.20;;;9.40;1.00;;;;;;4976388;28;20064;-86
2024/04/02 04:52:04;;;;;;;1.17;0.40;;;9.40;1.00;;;;;;4978138;28;20066;-88
2024/04/02 04:54:35;;;;;;;0.98;0.30;;;9.50;1.00;;;;;;4996212;28;20413;-88
2024/04/02 04:57:01;;;;;;;0.47;0.38;;;9.50;1.00;;;;;;4994335;28;20062;-87
2024/04/02 04:59:27;;;;;;;0.63;0.30;;;9.50;1.00;;;;;;5005536;28;20064;-87
2024/04/02 05:01:53;;;;;;;0.75;0.40;;;9.50;10.60;;;;;;4997913;28;20045;-88
2024/04/02 05:04:19;;;;;;;0.35;0.30;;;9.50;1.00;;;;;;4991977;28;20108;-87
2024/04/02 05:06:47;;;;;;;0.50;0.30;;;9.50;99.90;;;;;;4972846;28;20050;-83
2024/04/02 05:09:14;;;;;;;0.60;0.30;;;9.50;99.90;;;;;;4972083;28;20050;-84
2024/04/02 05:11:40;;;;;;;0.77;0.40;;;9.50;99.90;;;;;;4972979;28;20065;-84
2024/04/02 05:14:07;;;;;;;0.55;0.43;;;9.50;99.90;;;;;;4973109;28;20054;-84
2024/04/02 05:16:34;;;;;;;0.63;0.40;;;9.50;1.00;;;;;;4990150;28;20088;-83
2024/04/02 05:19:01;;;;;;;0.80;0.38;;;9.50;29.20;;;;;;4992948;28;20386;-82
2024/04/02 05:21:28;;;;;;;0.95;0.32;;;9.50;32.20;;;;;;4974595;28;20057;-83
2024/04/02 05:23:55;;;;;;;0.68;0.38;;;9.50;85.80;;;;;;4972784;28;20061;-82
2024/04/02 05:26:21;;;;;;;0.30;0.20;;;9.60;1.00;;;;;;4969336;28;20053;-82
2024/04/02 05:28:47;;;;;;;0.32;0.30;;;9.60;99.90;;;;;;4992117;28;20072;-82
2024/04/02 05:31:14;;;;;;;1.27;0.50;;;9.60;99.90;;;;;;4974437;28;20096;-80
2024/04/02 05:33:41;;;;;;;0.52;0.20;;;9.60;1.00;;;;;;5009248;28;20527;-81
2024/04/02 05:36:07;;;;;;;1.15;0.60;;;9.70;1.00;;;;;;4972082;28;20068;-81
2024/04/02 05:38:33;;;;;;;0.63;0.40;;;9.70;1.00;;;;;;4970278;28;20049;-81
2024/04/02 05:40:59;;;;;;;0.38;0.20;;;9.70;99.90;;;;;;4972859;28;20160;-82
2024/04/02 05:43:26;;;;;;;0.35;0.22;;;9.70;1.00;;;;;;5004773;28;20061;-83
2024/04/02 05:45:53;;;;;;;0.80;0.20;;;9.70;1.00;;;;;;4989450;28;20053;-82
2024/04/02 05:48:19;;;;;;;0.40;0.13;;;9.70;99.90;;;;;;4972676;28;20776;-82
2024/04/02 05:50:54;;;;;;;0.38;0.30;;;9.70;99.90;;;;;;4972063;28;20089;-81
2024/04/02 05:53:20;;;;;;;1.20;0.47;;;9.70;99.90;;;;;;4971582;28;20123;-82
2024/04/02 05:55:46;;;;;;;1.23;0.40;;;9.70;99.90;;;;;;4988257;28;20523;-81
2024/04/02 05:58:12;;;;;;;0.65;0.30;;;9.80;99.90;;;;;;4971970;28;20056;-82
2024/04/02 06:00:38;;;;;;;0.68;0.28;;;9.80;99.90;;;;;;4989024;28;20111;-82
2024/04/02 06:03:04;;;;;;;0.47;0.20;;;9.80;99.90;;;;;;4971979;28;20158;-82
2024/04/02 06:05:30;;;;;;;1.92;0.88;;;9.80;99.90;;;;;;4988398;28;20053;-82
2024/04/02 06:07:57;;;;;;;0.50;0.40;;;9.80;99.90;;;;;;4974949;28;20685;-82
2024/04/02 06:10:23;;;;;;;1.05;0.43;;;9.80;1.00;;;;;;4990774;28;20895;-83
2024/04/02 06:12:49;;;;;;;0.90;0.40;;;9.80;1.00;;;;;;4991010;28;20057;-81
2024/04/02 06:15:15;;;;;;;0.82;0.40;;;9.80;1.00;;;;;;4975121;28;20115;-80
2024/04/02 06:17:41;;;;;;;0.82;0.40;;;9.80;1.00;;;;;;4975707;28;20115;-83
2024/04/02 06:20:07;;;;;;;0.50;0.30;;;9.80;1.00;;;;;;4974985;28;20100;-82
2024/04/02 06:22:35;;;;;;;1.10;0.40;;;9.80;1.00;;;;;;4974683;28;20390;-82
2024/04/02 06:25:02;;;;;;;1.20;0.40;;;9.80;62.00;;;;;;4971624;28;20057;-82
2024/04/02 06:27:28;;;;;;;0.98;0.25;;;9.80;99.90;;;;;;4987928;28;20041;-82
2024/04/02 06:29:54;;;;;;;0.65;0.25;;;9.80;99.90;;;;;;4973062;28;20580;-82
2024/04/02 06:32:21;;;;;;;1.00;0.45;;;9.80;88.10;;;;;;4974726;28;20198;-81
2024/04/02 06:34:46;;;;;;;0.73;0.40;;;9.80;16.20;;;;;;4991399;28;20050;-81
2024/04/02 06:37:12;;;;;;;0.43;0.30;;;9.80;1.00;;;;;;4974527;28;20083;-81
2024/04/02 06:39:39;;;;;;;0.40;0.40;;;9.80;1.00;;;;;;4989245;28;20414;-82
2024/04/02 06:42:05;;;;;;;0.52;0.38;;;9.90;99.90;;;;;;4971441;28;20155;-83
2024/04/02 06:44:31;;;;;;;0.43;0.30;;;10.00;99.90;;;;;;4971385;28;20611;-82
2024/04/02 06:46:57;;;;;;;0.60;0.30;;;10.00;1.00;;;;;;5000712;28;20054;-82
2024/04/02 06:49:23;;;;;;;0.30;0.22;;;10.10;1.00;;;;;;4974072;28;20215;-81
2024/04/02 06:51:49;;;;;;;0.50;0.30;;;10.10;1.00;;;;;;5001975;28;20069;-82
2024/04/02 06:54:16;;;;;;;0.50;0.40;;;10.10;1.00;;;;;;4990268;28;20045;-82
2024/04/02 06:56:42;;;;;;;0.60;0.25;;;10.10;99.90;;;;;;4970715;28;20429;-82
2024/04/02 06:59:08;;;;;;;1.02;0.30;;;10.10;19.60;;;;;;4995382;28;20084;-82
2024/04/02 07:01:33;;;;;;;0.57;0.38;;;10.10;99.90;;;;;;4974370;28;20152;-83
2024/04/02 07:04:00;;;;;;;0.88;0.40;;;10.10;99.90;;;;;;4994006;28;20080;-83
2024/04/02 07:06:27;;;;;;;0.88;0.38;;;10.00;1.00;;;;;;5005870;28;20053;-82
2024/04/02 07:08:54;;;;;;;0.45;0.35;;;10.00;1.00;;;;;;4973697;28;20095;-82
2024/04/02 07:11:20;;;;;;;0.28;0.22;;;10.00;1.00;;;;;;4973328;28;20429;-81
2024/04/02 07:13:46;;;;;;;0.50;0.20;;;10.10;3.70;;;;;;5002617;28;20056;-82
2024/04/02 07:16:12;;;;;;;0.20;0.20;;;10.10;99.90;;;;;;4967049;28;20050;-83
2024/04/02 07:18:38;;;;;;;0.52;0.20;;;10.10;99.90;;;;;;4990392;28;20504;-82
2024/04/02 07:21:05;;;;;;;0.55;0.38;;;10.20;99.90;;;;;;4989246;28;20065;-82
2024/04/02 07:23:32;;;;;;;1.15;0.43;;;10.20;99.90;;;;;;4980593;28;20053;-83
2024/04/02 07:25:58;;;;;;;0.55;0.30;;;10.10;99.90;;;;;;4990406;28;20512;-83
2024/04/02 07:28:24;;;;;;;0.25;0.20;;;10.10;20.30;;;;;;4972700;28;20100;-82
2024/04/02 07:30:50;;;;;;;0.60;0.22;;;10.10;99.90;;;;;;4970783;28;20053;-82
2024/04/02 07:33:16;;;;;;;0.10;0.10;;;10.10;99.90;;;;;;4970221;28;20052;-81
2024/04/02 07:35:45;;;;;;;0.60;0.32;;;10.20;99.90;;;;;;4973430;28;20053;-82
2024/04/02 07:38:11;;;;;;;0.10;0.10;;;10.20;99.90;;;;;;4970830;28;20050;-82
2024/04/02 07:40:37;;;;;;;0.40;0.20;;;10.10;99.90;;;;;;4970262;28;20913;-82
2024/04/02 07:43:05;;;;;;;0.20;0.20;;;10.10;99.90;;;;;;4985794;28;20060;-81
2024/04/02 07:45:35;;;;;;;0.32;0.30;;;10.00;99.90;;;;;;4971339;28;20319;-83
2024/04/02 07:48:01;;;;;;;0.20;0.20;;;10.00;99.90;;;;;;4970600;28;20057;-82
2024/04/02 07:50:30;;;;;;;0.68;0.30;;;10.00;99.90;;;;;;4968707;28;20053;-82
2024/04/02 07:52:56;;;;;;;0.47;0.20;;;10.10;99.90;;;;;;4970150;28;20444;-82
2024/04/02 07:55:22;;;;;;;0.32;0.22;;;10.10;99.90;;;;;;4969745;28;20057;-81
2024/04/02 07:57:48;;;;;;;0.60;0.20;;;10.10;99.90;;;;;;4971947;28;20049;-82
2024/04/02 08:00:14;;;;;;;0.43;0.22;;;10.10;99.90;;;;;;4991081;28;20179;-82
2024/04/02 08:02:40;;;;;;;1.58;0.40;;;10.20;99.90;;;;;;5002155;28;20045;-82
2024/04/02 08:05:06;;;;;;;0.60;0.25;;;10.20;36.60;;;;;;4985352;28;20151;-82
2024/04/02 08:07:32;;;;;;;0.52;0.40;;;10.20;47.80;;;;;;4969818;28;20060;-82
2024/04/02 08:10:00;;;;;;;0.32;0.28;;;10.20;1.00;;;;;;4970900;28;20057;-82
2024/04/02 08:12:26;;;;;;;0.32;0.30;;;10.30;1.00;;;;;;4989069;28;20049;-82
2024/04/02 08:14:52;;;;;;;0.40;0.38;;;10.30;1.00;;;;;;4962979;28;20049;-83
2024/04/02 08:17:18;;;;;;;0.43;0.30;;;10.40;1.00;;;;;;4977944;28;20374;-82
2024/04/02 08:19:45;;;;;;;0.15;0.15;;;10.50;1.00;;;;;;4987952;28;20057;-82
2024/04/02 08:22:12;;;;;;;0.75;0.40;;;10.50;1.00;;;;;;4972173;28;20064;-81
2024/04/02 08:24:39;;;;;;;0.63;0.30;;;10.60;1.00;;;;;;5005272;28;20077;-82
2024/04/02 08:27:05;;;;;;;0.70;0.30;;;10.60;1.00;;;;;;4964710;28;20065;-82
2024/04/02 08:29:31;;;;;;;0.40;0.40;;;10.60;1.00;;;;;;4966331;28;20058;-82
2024/04/02 08:31:57;;;;;;;0.40;0.30;;;10.60;99.90;;;;;;4978132;28;20867;-82
2024/04/02 08:34:23;;;;;;;0.88;0.38;;;10.70;1.00;;;;;;4989063;28;20041;-82
2024/04/02 08:36:49;;;;;;;0.50;0.50;;;10.70;1.00;;;;;;5003257;28;20045;-81
2024/04/02 08:39:15;;;;;;;0.57;0.47;;;10.80;1.00;;;;;;4971355;28;20057;-82
2024/04/02 08:41:42;;;;;;;0.98;0.30;;;10.90;1.00;;;;;;4971894;28;20060;-83
2024/04/02 08:44:08;;;;;;;0.70;0.30;;;10.90;1.00;;;;;;4972494;28;20057;-82
2024/04/02 08:46:34;;;;;;;0.55;0.40;;;11.00;1.00;;;;;;4976330;28;20136;-82
2024/04/02 08:49:00;;;;;;;0.75;0.35;;;11.00;1.00;;;;;;4994721;28;20052;-81
2024/04/02 08:51:29;;;;;;;0.88;0.40;;;11.10;99.90;;;;;;4984403;28;20054;-81
2024/04/02 08:53:57;;;;;;;0.50;0.40;;;11.10;99.90;;;;;;4978409;28;20046;-82
2024/04/02 08:56:23;;;;;;;0.57;0.40;;;11.20;99.90;;;;;;4972252;28;20500;-81
2024/04/02 08:58:49;;;;;;;0.30;0.30;;;11.30;99.90;;;;;;4972607;28;20060;-83
2024/04/02 09:01:15;;;;;;;0.70;0.50;;;11.30;99.90;;;;;;4986273;28;20062;-82
2024/04/02 09:03:41;;;;;;;0.40;0.40;;;11.40;99.90;;;;;;4985441;28;20072;-82
2024/04/02 09:06:07;;;;;;;0.57;0.50;;;11.40;99.90;;;;;;4987190;28;20510;-82
2024/04/02 09:08:46;;;;;;;0.47;0.30;;;11.50;99.90;;;;;;4999997;28;20054;-83
2024/04/02 09:11:15;;;;;;;0.60;0.40;;;11.50;99.90;;;;;;4971164;28;20591;-82
2024/04/02 09:13:41;;;;;;;0.20;0.20;;;11.60;99.90;;;;;;5001887;28;20049;-82
2024/04/02 09:16:07;;;;;;;0.43;0.40;;;11.70;99.90;;;;;;4988189;28;20525;-82
2024/04/02 09:18:37;;;;;;;0.43;0.43;;;11.90;99.90;;;;;;4971863;28;20057;-82
2024/04/02 09:21:03;;;;;;;0.40;0.30;;;11.90;99.90;;;;;;4989068;28;20060;-82
2024/04/02 09:23:29;;;;;;;0.40;0.40;;;12.10;99.90;;;;;;4968131;28;20583;-82
2024/04/02 09:25:56;;;;;;;1.00;0.68;;;12.20;99.90;;;;;;5002984;28;20057;-82
2024/04/02 09:28:22;;;;;;;0.20;0.20;;;12.30;99.90;;;;;;4972483;28;20484;-82
2024/04/02 09:30:48;;;;;;;0.40;0.38;;;12.30;99.90;;;;;;4975364;28;20053;-82
2024/04/02 09:33:16;;;;;;;0.73;0.35;;;12.30;99.90;;;;;;4987969;28;20128;-81
2024/04/02 09:36:11;;;;;;;0.20;0.20;;;12.40;99.90;;;;;;4973389;28;20057;-81
2024/04/02 09:38:41;;;;;;;0.75;0.40;;;12.50;99.90;;;;;;4988597;28;20198;-82
2024/04/02 09:41:07;;;;;;;1.65;0.50;;;12.50;99.90;;;;;;4971196;28;20454;-82
2024/04/02 09:43:33;;;;;;;3.10;0.45;;;12.50;99.90;;;;;;4972240;28;20066;-82
2024/04/02 09:46:00;;;;;;;0.68;0.40;;;12.60;99.90;;;;;;4991873;28;20480;-83
2024/04/02 09:48:28;;;;;;;0.70;0.40;;;12.70;99.90;;;;;;4975556;28;20060;-82
2024/04/02 09:50:54;;;;;;;0.20;0.20;;;12.80;99.90;;;;;;4966895;28;20488;-83
2024/04/02 09:53:21;;;;;;;0.50;0.40;;;12.80;99.90;;;;;;4972747;28;20401;-82
2024/04/02 09:55:48;;;;;;;0.45;0.30;;;12.80;99.90;;;;;;4975245;28;20053;-82
2024/04/02 09:58:15;;;;;;;0.47;0.30;;;12.70;99.90;;;;;;4975168;28;20069;-82
2024/04/02 10:00:43;;;;;;;0.43;0.35;;;12.80;99.90;;;;;;4975024;28;20053;-83
2024/04/02 10:03:09;;;;;;;0.30;0.30;;;12.90;99.90;;;;;;5007612;28;20097;-82
2024/04/02 10:05:35;;;;;;;0.50;0.30;;;13.00;99.90;;;;;;4972223;28;20064;-82
2024/04/02 10:08:02;;;;;;;0.20;0.20;;;13.30;99.90;;;;;;4999930;28;20049;-82
2024/04/02 10:10:29;;;;;;;0.22;0.22;;;13.40;99.90;;;;;;4990192;28;20053;-82
2024/04/02 10:12:56;;;;;;;0.22;0.22;;;13.30;99.90;;;;;;4973440;28;20597;-82
2024/04/02 10:15:22;;;;;;;0.68;0.40;;;13.30;99.90;;;;;;5008026;28;20413;-83
2024/04/02 10:17:56;;;;;;;0.32;0.30;;;13.30;99.90;;;;;;4971590;28;20540;-83
2024/04/02 10:20:27;;;;;;;0.20;0.20;;;13.30;99.90;;;;;;4988583;28;20065;-77
2024/04/02 10:22:53;;;;;;;0.30;0.30;;;13.50;99.90;;;;;;4988662;28;20057;-78
2024/04/02 10:25:19;;;;;;;0.70;0.50;;;13.30;99.90;;;;;;5003060;28;20053;-78
2024/04/02 10:27:47;;;;;;;0.55;0.40;;;13.40;99.90;;;;;;5003857;28;20152;-78
2024/04/02 10:30:16;;;;;;;0.30;0.30;;;13.40;99.90;;;;;;5023539;28;20053;-77
2024/04/02 10:32:43;;;;;;;0.43;0.32;;;13.50;99.90;;;;;;5003010;28;20444;-77
2024/04/02 10:35:17;;;;;;;0.40;0.40;;;13.50;99.90;;;;;;5003491;28;20058;-78
2024/04/02 10:37:42;;;;;;;0.35;0.35;;;13.40;99.90;;;;;;5005297;28;20513;-77
2024/04/02 10:40:08;;;;;;;0.77;0.50;;;13.50;99.90;;;;;;5022771;28;20587;-78
2024/04/02 10:42:34;;;;;;;0.40;0.40;;;13.40;99.90;;;;;;5006302;28;20087;-78
2024/04/02 10:45:00;;;;;;;0.90;0.50;;;13.50;99.90;;;;;;5007170;28;20144;-77
2024/04/02 10:47:28;;;;;;;1.90;0.80;;;13.60;99.90;;;;;;5022892;28;20049;-78
2024/04/02 10:49:54;;;;;;;0.40;0.40;;;13.80;99.90;;;;;;5006572;28;20080;-78
2024/04/02 10:52:20;;;;;;;0.80;0.52;;;13.90;99.90;;;;;;5022636;28;20061;-78
2024/04/02 10:54:46;;;;;;;0.63;0.60;;;14.20;99.90;;;;;;4990051;28;20088;-79
2024/04/02 10:57:12;;;;;;;0.68;0.50;;;14.40;99.90;;;;;;4974031;28;20054;-78
2024/04/02 10:59:41;;;;;;;0.47;0.47;;;14.50;99.90;;;;;;4990744;28;20053;-78
2024/04/02 11:02:19;;;;;;;0.60;0.60;;;14.60;99.90;;;;;;5006634;28;20061;-78
2024/04/02 11:04:46;;;;;;;0.45;0.43;;;14.70;99.90;;;;;;4991875;28;20053;-78
2024/04/02 11:07:12;;;;;;;0.40;0.40;;;14.90;99.90;;;;;;5002873;28;20053;-78
2024/04/02 11:09:42;;;;;;;0.35;0.35;;;14.80;99.90;;;;;;5029656;28;20056;-78
2024/04/02 11:12:08;;;;;;;0.63;0.40;;;14.90;99.90;;;;;;5006309;28;20459;-79
2024/04/02 11:14:38;;;;;;;0.40;0.40;;;14.80;99.90;;;;;;4974349;28;20057;-78
2024/04/02 11:17:05;;;;;;;0.50;0.50;;;14.80;99.90;;;;;;4990776;28;20543;-78
2024/04/02 11:19:31;;;;;;;0.60;0.60;;;14.80;1.00;;;;;;5005043;28;20049;-78
2024/04/02 11:24:57;;;;;;;0.30;0.30;;;14.90;1.00;;;;;;4999020;28;20583;-78
2024/04/02 11:27:24;;;;;;;0.40;0.40;;;15.00;99.90;;;;;;5001220;28;20116;-78
2024/04/02 11:29:50;;;;;;;0.80;0.55;;;15.10;99.90;;;;;;4989382;28;20045;-78
2024/04/02 11:32:16;;;;;;;1.48;0.55;;;15.10;99.90;;;;;;5003093;28;20508;-78
2024/04/02 11:34:42;;;;;;;0.40;0.40;;;15.20;99.90;;;;;;5019208;28;20053;-77
2024/04/02 11:37:08;;;;;;;0.50;0.50;;;15.10;99.90;;;;;;5019663;28;20060;-77
2024/04/02 11:39:35;;;;;;;0.57;0.47;;;15.00;99.90;;;;;;5005701;28;20061;-76
2024/04/02 11:42:01;;;;;;;0.65;0.50;;;14.90;99.90;;;;;;5022240;28;20057;-76
2024/04/02 11:44:27;;;;;;;0.30;0.30;;;15.00;99.90;;;;;;5005916;28;20049;-77
2024/04/02 11:46:53;;;;;;;0.45;0.45;;;15.60;99.90;;;;;;5022233;28;20064;-77
2024/04/02 11:49:18;;;;;;;0.30;0.30;;;16.10;99.90;;;;;;4986308;28;20064;-77
2024/04/02 11:51:44;;;;;;;0.60;0.50;;;16.60;99.90;;;;;;4985348;28;20053;-78
2024/04/02 11:54:10;;;;;;;0.57;0.40;;;16.90;99.90;;;;;;5001975;28;20551;-78
2024/04/02 12:02:05;;;;;;;0.30;0.30;;;17.00;99.90;;;;;;5008022;28;20054;-77
2024/04/02 12:04:31;;;;;;;0.20;0.20;;;17.40;99.90;;;;;;5005491;28;20124;-79
2024/04/02 12:06:57;;;;;;;0.20;0.20;;;17.30;99.90;;;;;;4988890;28;20049;-77
2024/04/02 12:09:23;;;;;;;0.25;0.25;;;17.10;99.90;;;;;;4972659;28;20446;-78
2024/04/02 12:11:49;;;;;;;0.30;0.30;;;16.90;99.90;;;;;;4989079;28;20053;-77
2024/04/02 12:14:14;;;;;;;0.45;0.40;;;17.00;99.90;;;;;;5021580;28;20049;-78
2024/04/02 12:16:40;;;;;;;0.30;0.30;;;17.00;1.00;;;;;;5022159;28;20061;-77
2024/04/02 12:19:06;;;;;;;0.30;0.30;;;16.90;1.00;;;;;;4988167;28;20120;-78
2024/04/02 12:21:32;;;;;;;1.73;0.90;;;16.80;1.00;;;;;;5018338;28;20091;-78
2024/04/02 12:23:58;;;;;;;1.80;0.93;;;16.60;1.00;;;;;;4985988;28;20061;-77
2024/04/02 12:26:24;;;;;;;0.70;0.50;;;16.30;1.00;;;;;;5000877;28;20428;-77
2024/04/02 12:28:50;;;;;;;0.60;0.55;;;16.20;1.00;;;;;;4986530;28;20052;-77
2024/04/02 12:31:16;;;;;;;0.88;0.50;;;16.10;99.90;;;;;;5021551;28;20053;-78
2024/04/02 12:33:42;;;;;;;0.75;0.40;;;16.00;1.00;;;;;;5005139;28;20048;-77
2024/04/02 12:36:08;;;;;;;0.82;0.50;;;16.10;1.00;;;;;;4987958;28;20083;-78
2024/04/02 12:38:34;;;;;;;0.57;0.50;;;16.20;1.00;;;;;;5001922;28;20061;-78
2024/04/02 12:41:03;;;;;;;0.75;0.50;;;16.40;1.00;;;;;;5001791;28;20061;-78
2024/04/02 12:43:29;;;;;;;0.30;0.30;;;16.50;1.00;;;;;;5018393;28;20460;-78
2024/04/02 12:45:55;;;;;;;0.73;0.57;;;16.50;1.00;;;;;;5002362;28;20155;-78
2024/04/02 12:48:21;;;;;;;0.50;0.50;;;16.80;1.00;;;;;;4988481;28;20053;-79
2024/04/02 12:50:54;;;;;;;0.63;0.57;;;17.30;1.00;;;;;;4975028;28;20164;-78
2024/04/02 12:53:20;;;;;;;0.63;0.50;;;18.00;1.00;;;;;;5008410;28;20053;-78
2024/04/02 12:55:47;;;;;;;1.55;0.50;;;18.70;1.00;;;;;;5008666;28;20053;-78
2024/04/02 12:58:13;;;;;;;0.20;0.20;;;19.00;1.00;;;;;;5024805;28;20054;-78
2024/04/02 13:00:39;;;;;;;0.20;0.20;;;19.00;1.00;;;;;;5025341;28;20072;-79
2024/04/02 13:03:05;;;;;;;0.40;0.35;;;18.60;1.00;;;;;;5008872;28;20531;-78